X  Close Metar Aviation Weather Data     KSWO Stillwater Regional Airport
Temperature
82°F Temperature
61°F Dewpoint
48% Humidity



Wind
8 MPH
13 KM/H
4 M/S
7 KTS



150°
SSE
Current Conditions

Clear Clear
Pressure 1012.22 (hPa) - 29.89 (inHg)
Visibility 9.9 (mile) - 16 (km)
Airport
Airport-code KSWO

Location: Stillwater Regional Airport
Distance: 4 (mi)

Metar:
KSWO 281553Z 15007KT 10SM CLR 28/16 A2989 RMK AO2 SLP106 T02830156

Time: 09-28-2021 10:53 am CDT